Time;durP1;ratioP1;P1;durP2;ratioP2;P2;SDS_P1;SDS_P2;PMS_P1;PMS_P2;Temp;Humidity;BMP_temperature;BMP_pressure;BME280_temperature;BME280_humidity;BME280_pressure;Samples;Min_cycle;Max_cycle;Signal;HPM_P1;HPM_P2
2023/07/19 00:02:09;;;;;;;4.57;2.25;;;21.30;94.40;;;;;;5027084;28;20691;-25
2023/07/19 00:04:41;;;;;;;8.98;2.63;;;21.30;94.40;;;;;;5041651;28;20204;-24
2023/07/19 00:07:13;;;;;;;3.60;2.15;;;21.30;94.60;;;;;;5035727;28;20220;-24
2023/07/19 00:09:45;;;;;;;3.53;2.15;;;21.30;94.60;;;;;;5041221;28;20249;-33
2023/07/19 00:12:12;;;;;;;3.63;2.13;;;21.20;94.50;;;;;;5065789;28;20211;-33
2023/07/19 00:14:42;;;;;;;7.60;2.15;;;21.20;94.60;;;;;;5066933;28;20195;-33
2023/07/19 00:17:15;;;;;;;6.53;2.20;;;21.20;94.60;;;;;;5067256;28;20749;-33
2023/07/19 00:19:44;;;;;;;4.72;2.10;;;21.10;94.60;;;;;;5050904;28;20223;-33
2023/07/19 00:22:11;;;;;;;3.13;2.03;;;21.10;94.60;;;;;;5028459;28;20679;-33
2023/07/19 00:24:38;;;;;;;5.70;2.10;;;21.10;94.70;;;;;;5065123;28;20204;-33
2023/07/19 00:27:06;;;;;;;5.80;2.13;;;21.00;94.70;;;;;;5046939;28;20220;-33
2023/07/19 00:29:35;;;;;;;4.30;1.80;;;21.00;94.70;;;;;;5046907;28;20207;-33
2023/07/19 00:32:05;;;;;;;5.72;2.17;;;21.00;94.70;;;;;;5048371;28;20203;-33
2023/07/19 00:34:35;;;;;;;6.32;2.30;;;20.90;94.80;;;;;;5048582;28;20200;-33
2023/07/19 00:37:03;;;;;;;4.68;2.13;;;20.90;94.80;;;;;;5045137;28;20646;-25
2023/07/19 00:39:30;;;;;;;4.20;1.92;;;20.90;94.90;;;;;;5046337;28;20240;-25
2023/07/19 00:41:57;;;;;;;4.05;2.17;;;20.80;94.80;;;;;;5046913;28;20200;-24
2023/07/19 00:44:24;;;;;;;3.85;2.13;;;20.80;94.90;;;;;;5046968;28;20227;-24
2023/07/19 00:46:57;;;;;;;5.07;2.15;;;20.70;94.90;;;;;;5046339;28;20311;-25
2023/07/19 00:49:25;;;;;;;5.68;2.25;;;20.70;95.00;;;;;;5045541;28;20395;-25
2023/07/19 00:51:52;;;;;;;6.82;2.50;;;20.90;95.30;;;;;;5045854;28;20208;-24
2023/07/19 00:54:23;;;;;;;4.10;2.25;;;20.80;95.10;;;;;;5045693;28;20583;-25
2023/07/19 00:56:58;;;;;;;6.32;2.25;;;20.80;95.10;;;;;;5048070;28;20724;-25
2023/07/19 00:59:29;;;;;;;4.32;2.05;;;20.70;95.10;;;;;;5040526;28;20200;-25
2023/07/19 01:01:59;;;;;;;3.92;1.98;;;20.70;95.20;;;;;;5031911;28;20657;-24
2023/07/19 01:04:29;;;;;;;4.43;2.40;;;20.60;95.20;;;;;;5040025;28;20276;-25
2023/07/19 01:06:57;;;;;;;5.65;2.13;;;20.60;95.20;;;;;;5040376;28;20209;-25
2023/07/19 01:09:27;;;;;;;4.00;1.83;;;20.60;95.20;;;;;;5044545;28;20204;-25
2023/07/19 01:11:59;;;;;;;6.70;2.33;;;20.60;95.30;;;;;;5034311;28;20201;-24
2023/07/19 01:14:31;;;;;;;4.57;2.13;;;20.50;95.30;;;;;;5039345;28;20231;-24
2023/07/19 01:17:00;;;;;;;5.82;2.20;;;20.50;95.20;;;;;;5046315;28;20227;-24
2023/07/19 01:19:30;;;;;;;5.68;2.30;;;20.50;95.20;;;;;;5045709;28;20721;-24
2023/07/19 01:22:00;;;;;;;3.47;2.28;;;20.50;95.20;;;;;;5046581;28;20211;-24
2023/07/19 01:24:30;;;;;;;6.03;2.42;;;20.50;95.20;;;;;;5047262;28;20211;-24
2023/07/19 01:26:59;;;;;;;4.90;2.15;;;20.50;95.30;;;;;;5044303;28;20216;-24
2023/07/19 01:29:43;;;;;;;4.85;2.10;;;20.40;95.20;;;;;;5025805;28;20308;-25
2023/07/19 01:32:12;;;;;;;3.58;1.73;;;20.40;95.30;;;;;;5024482;28;20525;-24
2023/07/19 01:34:42;;;;;;;3.05;2.00;;;20.40;95.20;;;;;;5030605;28;20220;-24
2023/07/19 01:37:12;;;;;;;4.00;2.30;;;20.40;95.30;;;;;;5046758;28;20265;-25
2023/07/19 01:39:43;;;;;;;5.25;2.33;;;20.30;95.30;;;;;;5046813;28;20275;-25
2023/07/19 01:42:15;;;;;;;4.38;2.45;;;20.30;95.30;;;;;;5046954;28;20188;-24
2023/07/19 01:44:44;;;;;;;6.00;2.13;;;20.30;95.40;;;;;;5046482;28;20224;-24
2023/07/19 01:47:14;;;;;;;4.45;2.20;;;20.30;95.30;;;;;;5046010;28;20200;-24
2023/07/19 01:49:46;;;;;;;5.15;2.20;;;20.30;95.40;;;;;;5046387;28;20243;-25
2023/07/19 01:52:18;;;;;;;4.93;2.30;;;20.20;95.70;;;;;;5046940;28;20215;-24
2023/07/19 01:54:45;;;;;;;4.32;1.98;;;20.20;95.40;;;;;;5046837;28;20692;-25
2023/07/19 01:57:15;;;;;;;5.25;2.20;;;20.20;95.50;;;;;;5042037;28;20232;-24
2023/07/19 01:59:42;;;;;;;2.75;2.03;;;20.20;95.50;;;;;;5032942;28;20269;-24
2023/07/19 02:02:12;;;;;;;5.63;1.98;;;20.10;95.50;;;;;;5025736;28;20267;-24
2023/07/19 02:04:42;;;;;;;2.42;1.80;;;20.10;95.50;;;;;;5046166;28;20211;-25
2023/07/19 02:07:09;;;;;;;4.85;2.60;;;20.00;95.50;;;;;;5064521;28;20226;-25
2023/07/19 02:09:36;;;;;;;4.60;2.25;;;20.00;95.50;;;;;;5063022;28;20567;-24
2023/07/19 02:12:06;;;;;;;3.47;2.28;;;20.00;95.50;;;;;;5045237;28;20684;-24
2023/07/19 02:14:33;;;;;;;3.03;2.38;;;19.90;95.50;;;;;;5045487;28;20204;-24
2023/07/19 02:17:01;;;;;;;7.95;2.20;;;19.90;95.40;;;;;;5029729;28;20209;-24
2023/07/19 02:19:32;;;;;;;6.55;2.72;;;19.90;95.60;;;;;;5042354;28;20200;-24
2023/07/19 02:22:03;;;;;;;4.45;2.75;;;19.90;95.60;;;;;;5024945;28;20196;-24
2023/07/19 02:24:33;;;;;;;5.45;2.35;;;19.80;95.50;;;;;;5028445;28;20671;-24
2023/07/19 02:27:00;;;;;;;3.60;2.60;;;19.80;95.50;;;;;;5043570;28;20211;-25
2023/07/19 02:29:32;;;;;;;3.13;2.22;;;19.80;95.50;;;;;;5028652;28;20203;-25
2023/07/19 02:31:59;;;;;;;5.68;2.75;;;19.70;95.50;;;;;;5046793;28;20242;-24
2023/07/19 02:34:26;;;;;;;5.32;2.35;;;19.70;95.50;;;;;;5033981;28;20201;-25
2023/07/19 02:36:56;;;;;;;4.70;2.30;;;19.70;95.60;;;;;;5042613;28;20241;-25
2023/07/19 02:39:27;;;;;;;4.43;2.53;;;19.70;95.60;;;;;;5046254;28;20240;-24
2023/07/19 02:42:01;;;;;;;4.00;2.53;;;19.60;95.60;;;;;;5046232;28;20196;-25
2023/07/19 02:44:28;;;;;;;4.38;2.30;;;19.60;95.90;;;;;;5044883;28;20212;-24
2023/07/19 02:46:56;;;;;;;5.50;2.40;;;19.60;95.60;;;;;;5032990;28;20663;-25
2023/07/19 02:49:24;;;;;;;4.53;2.10;;;19.60;95.60;;;;;;5026539;28;20208;-25
2023/07/19 02:51:56;;;;;;;4.70;2.53;;;19.50;95.60;;;;;;5025140;28;20189;-24
2023/07/19 02:54:26;;;;;;;5.00;2.47;;;19.50;95.60;;;;;;5043067;28;20220;-25
2023/07/19 02:56:53;;;;;;;4.47;2.60;;;19.50;95.70;;;;;;5044858;28;20613;-25
2023/07/19 02:59:20;;;;;;;4.50;2.45;;;19.40;95.70;;;;;;5044384;28;20709;-24
2023/07/19 03:01:50;;;;;;;4.70;2.50;;;19.40;95.70;;;;;;5047817;28;20632;-25
2023/07/19 03:04:17;;;;;;;5.45;2.22;;;19.40;95.80;;;;;;5048655;28;20307;-24
2023/07/19 03:06:44;;;;;;;5.63;2.58;;;19.40;95.80;;;;;;5049365;28;20780;-25
2023/07/19 03:09:15;;;;;;;4.03;2.33;;;19.40;95.80;;;;;;5047646;28;20215;-25
2023/07/19 03:11:42;;;;;;;6.38;2.45;;;19.40;95.80;;;;;;5047979;28;20286;-24
2023/07/19 03:14:11;;;;;;;4.68;2.38;;;19.30;95.80;;;;;;5048296;28;20215;-24
2023/07/19 03:16:38;;;;;;;3.42;2.10;;;19.30;95.80;;;;;;5049742;28;20217;-33
2023/07/19 03:19:10;;;;;;;4.03;2.60;;;19.20;95.80;;;;;;5048281;28;20235;-33
2023/07/19 03:21:40;;;;;;;4.78;2.58;;;19.20;95.90;;;;;;5045994;28;20299;-33
2023/07/19 03:24:12;;;;;;;4.18;2.38;;;19.20;95.80;;;;;;5039250;28;20201;-33
2023/07/19 03:26:39;;;;;;;5.22;2.33;;;19.20;95.90;;;;;;5042769;28;20209;-33
2023/07/19 03:29:11;;;;;;;3.08;2.10;;;19.20;95.80;;;;;;5047465;28;20224;-34
2023/07/19 03:31:38;;;;;;;3.17;2.20;;;19.20;95.90;;;;;;5047972;28;20271;-33
2023/07/19 03:34:07;;;;;;;4.28;2.58;;;19.20;95.80;;;;;;5031734;28;20695;-24
2023/07/19 03:36:35;;;;;;;5.93;2.33;;;19.20;95.90;;;;;;5047235;28;20208;-24
2023/07/19 03:39:03;;;;;;;4.35;2.33;;;19.20;95.90;;;;;;5047405;28;20361;-24
2023/07/19 03:41:30;;;;;;;5.03;2.33;;;19.10;95.90;;;;;;5029998;28;20208;-25
2023/07/19 03:44:00;;;;;;;6.25;2.25;;;19.10;95.90;;;;;;5036911;28;20254;-25
2023/07/19 03:46:29;;;;;;;4.60;2.67;;;19.10;96.00;;;;;;5043311;28;20217;-24
2023/07/19 03:48:56;;;;;;;1.83;1.65;;;19.10;96.00;;;;;;5029471;28;20205;-24
2023/07/19 03:51:26;;;;;;;6.05;2.40;;;19.10;96.00;;;;;;5028172;28;20209;-24
2023/07/19 03:53:58;;;;;;;3.65;2.15;;;19.10;96.00;;;;;;5027849;28;20213;-33
2023/07/19 03:56:26;;;;;;;3.53;2.30;;;19.10;96.10;;;;;;5027862;28;20212;-33
2023/07/19 03:58:57;;;;;;;5.00;2.30;;;19.10;96.40;;;;;;5029443;28;20707;-33
2023/07/19 04:01:27;;;;;;;5.40;2.33;;;19.10;96.20;;;;;;5030165;28;20217;-33
2023/07/19 04:04:01;;;;;;;4.95;2.33;;;19.10;96.20;;;;;;5029958;28;20215;-33
2023/07/19 04:06:30;;;;;;;3.45;2.20;;;19.10;96.20;;;;;;5028215;28;20694;-33
2023/07/19 04:09:01;;;;;;;4.43;2.58;;;19.10;96.20;;;;;;5027610;28;20201;-33
2023/07/19 04:11:30;;;;;;;6.22;2.17;;;19.10;96.20;;;;;;5028749;28;20208;-33
2023/07/19 04:14:00;;;;;;;5.30;2.38;;;19.10;96.30;;;;;;5027370;28;20526;-33
2023/07/19 04:16:32;;;;;;;9.30;2.63;;;19.10;96.30;;;;;;5041318;28;20203;-33
2023/07/19 04:18:59;;;;;;;4.53;2.35;;;19.10;96.30;;;;;;5031967;28;20243;-33
2023/07/19 04:21:31;;;;;;;5.00;2.33;;;19.10;96.40;;;;;;5027803;28;20429;-32
2023/07/19 04:23:58;;;;;;;3.65;2.05;;;19.10;96.40;;;;;;5026989;28;20200;-32
2023/07/19 04:26:28;;;;;;;3.53;2.00;;;19.10;96.40;;;;;;5027143;28;20223;-32
2023/07/19 04:28:58;;;;;;;4.15;2.05;;;19.10;96.40;;;;;;5028780;28;20215;-32
2023/07/19 04:31:28;;;;;;;2.45;1.95;;;19.10;96.40;;;;;;5028545;28;20773;-33
2023/07/19 04:33:57;;;;;;;3.28;1.90;;;19.10;96.40;;;;;;5034982;28;20208;-33
2023/07/19 04:36:28;;;;;;;2.40;2.15;;;19.10;96.40;;;;;;5027409;28;20239;-33
2023/07/19 04:38:57;;;;;;;4.22;2.28;;;19.10;96.40;;;;;;5028380;28;20248;-33
2023/07/19 04:41:32;;;;;;;4.38;2.28;;;19.10;96.40;;;;;;5030708;28;20201;-32
2023/07/19 04:44:00;;;;;;;3.28;2.05;;;19.20;96.50;;;;;;5028397;28;20213;-32
2023/07/19 04:46:29;;;;;;;4.18;2.10;;;19.20;96.50;;;;;;5039388;28;20208;-33
2023/07/19 04:48:59;;;;;;;3.30;2.08;;;19.20;96.50;;;;;;5048092;28;20212;-33
2023/07/19 04:51:31;;;;;;;3.47;2.10;;;19.30;96.50;;;;;;5036438;28;20658;-32
2023/07/19 04:54:03;;;;;;;3.65;1.90;;;19.30;96.60;;;;;;5026464;28;20569;-33
2023/07/19 04:56:31;;;;;;;3.67;2.17;;;19.40;96.70;;;;;;5035571;28;20200;-33
2023/07/19 04:59:03;;;;;;;3.90;2.22;;;19.40;96.70;;;;;;5046470;28;20232;-33
2023/07/19 05:01:30;;;;;;;4.88;2.10;;;19.40;96.80;;;;;;5039462;28;20202;-33
2023/07/19 05:04:02;;;;;;;4.28;2.10;;;19.40;96.80;;;;;;5033785;28;20247;-33
2023/07/19 05:06:31;;;;;;;4.78;2.50;;;19.50;96.90;;;;;;5034710;28;20240;-32
2023/07/19 05:08:58;;;;;;;4.20;2.20;;;19.50;96.90;;;;;;5031104;28;20216;-32
2023/07/19 05:11:28;;;;;;;3.92;2.20;;;19.50;96.90;;;;;;5031940;28;20205;-32
2023/07/19 05:13:58;;;;;;;3.75;2.45;;;19.60;97.00;;;;;;5033153;28;20747;-33
2023/07/19 05:16:30;;;;;;;4.75;1.95;;;19.60;97.00;;;;;;5030202;28;20723;-33
2023/07/19 05:19:02;;;;;;;3.90;2.38;;;19.60;97.00;;;;;;5029414;28;20251;-33
2023/07/19 05:21:32;;;;;;;3.42;2.08;;;19.70;97.10;;;;;;5029733;28;20239;-33
2023/07/19 05:24:02;;;;;;;6.10;2.20;;;19.70;97.20;;;;;;5025341;28;20744;-33
2023/07/19 05:26:30;;;;;;;3.92;2.15;;;19.70;97.20;;;;;;5027594;28;20205;-32
2023/07/19 05:29:00;;;;;;;3.95;2.25;;;19.70;97.30;;;;;;5031912;28;20212;-33
2023/07/19 05:31:29;;;;;;;4.80;2.40;;;19.80;97.40;;;;;;5032823;28;20239;-33
2023/07/19 05:33:56;;;;;;;3.60;2.30;;;19.80;97.40;;;;;;5044414;28;20299;-33
2023/07/19 05:36:28;;;;;;;3.42;2.53;;;19.90;97.50;;;;;;5030008;28;20212;-33
2023/07/19 05:38:58;;;;;;;4.55;2.20;;;19.90;97.60;;;;;;5025761;28;20236;-33
2023/07/19 05:41:26;;;;;;;5.32;2.50;;;20.00;97.60;;;;;;5027067;28;20200;-33
2023/07/19 05:43:55;;;;;;;4.15;2.40;;;19.90;97.60;;;;;;5034713;28;20337;-33
2023/07/19 05:46:39;;;;;;;5.95;2.40;;;20.00;97.60;;;;;;5046841;28;20200;-33
2023/07/19 05:49:10;;;;;;;2.78;2.17;;;20.00;97.70;;;;;;5047165;28;20269;-33
2023/07/19 05:51:40;;;;;;;6.82;2.60;;;20.10;97.80;;;;;;5032752;28;20697;-33
2023/07/19 05:54:07;;;;;;;3.80;2.53;;;20.10;97.90;;;;;;5025700;28;20220;-33
2023/07/19 05:56:34;;;;;;;4.15;2.50;;;20.20;97.90;;;;;;5028913;28;20208;-33
2023/07/19 05:59:04;;;;;;;7.85;2.50;;;20.20;97.90;;;;;;5038061;28;20668;-34
2023/07/19 06:01:31;;;;;;;3.33;2.30;;;20.30;98.00;;;;;;5044966;28;20192;-33
2023/07/19 06:04:03;;;;;;;3.22;2.40;;;20.30;98.00;;;;;;5046903;28;20208;-33
2023/07/19 06:06:33;;;;;;;3.17;2.05;;;20.30;98.00;;;;;;5044125;28;20212;-33
2023/07/19 06:09:08;;;;;;;5.35;2.30;;;20.30;98.10;;;;;;5044942;28;20219;-33
2023/07/19 06:11:38;;;;;;;4.80;2.50;;;20.40;98.10;;;;;;5035979;28;20621;-33
2023/07/19 06:14:06;;;;;;;4.82;2.28;;;20.40;98.10;;;;;;5024239;28;20223;-33
2023/07/19 06:16:39;;;;;;;5.22;2.45;;;20.50;98.10;;;;;;5026589;28;20222;-33
2023/07/19 06:19:06;;;;;;;5.82;2.17;;;20.50;98.20;;;;;;5026148;28;20220;-33
2023/07/19 06:21:36;;;;;;;3.80;2.25;;;20.60;98.20;;;;;;5024360;28;20212;-33
2023/07/19 06:24:05;;;;;;;4.82;2.05;;;20.60;98.30;;;;;;5026352;28;20204;-33
2023/07/19 06:26:33;;;;;;;7.35;2.60;;;20.60;98.30;;;;;;5036755;28;20266;-33
2023/07/19 06:29:00;;;;;;;4.90;2.50;;;20.70;98.30;;;;;;5039010;28;20674;-33
2023/07/19 06:31:27;;;;;;;3.83;2.22;;;20.70;98.30;;;;;;5025983;28;20212;-33
2023/07/19 06:33:55;;;;;;;4.55;2.35;;;20.70;98.30;;;;;;5033668;28;20220;-33
2023/07/19 06:36:26;;;;;;;3.83;2.50;;;20.80;98.40;;;;;;5036002;28;20210;-25
2023/07/19 06:38:56;;;;;;;6.22;2.63;;;20.80;98.40;;;;;;5036130;28;20239;-24
2023/07/19 06:41:23;;;;;;;4.90;2.30;;;20.80;98.40;;;;;;5030514;28;20292;-24
2023/07/19 06:43:50;;;;;;;4.75;2.10;;;20.90;98.50;;;;;;5037544;28;20391;-34
2023/07/19 06:46:17;;;;;;;4.20;2.30;;;20.90;98.50;;;;;;5041826;28;21236;-25
2023/07/19 06:48:45;;;;;;;4.40;2.22;;;21.00;98.80;;;;;;5051140;28;20200;-24
2023/07/19 06:51:14;;;;;;;4.28;2.60;;;21.00;98.50;;;;;;5041799;28;20899;-24
2023/07/19 06:53:41;;;;;;;4.47;2.13;;;21.10;98.60;;;;;;5038899;28;20204;-24
2023/07/19 06:56:13;;;;;;;6.68;2.78;;;21.10;98.60;;;;;;5033651;28;20222;-24
2023/07/19 06:58:43;;;;;;;4.28;1.80;;;21.20;98.60;;;;;;5034342;28;20302;-24
2023/07/19 07:01:13;;;;;;;7.65;2.40;;;21.20;98.60;;;;;;5036207;28;20204;-24
2023/07/19 07:03:40;;;;;;;4.40;2.05;;;21.30;98.80;;;;;;5032926;28;20205;-24
2023/07/19 07:06:10;;;;;;;4.65;2.28;;;21.30;98.80;;;;;;5032044;28;20228;-25
2023/07/19 07:08:42;;;;;;;5.10;2.10;;;21.30;98.70;;;;;;5044111;28;20731;-24
2023/07/19 07:11:10;;;;;;;4.97;2.10;;;21.40;98.80;;;;;;5038034;28;20201;-24
2023/07/19 07:13:37;;;;;;;3.08;1.60;;;21.40;98.60;;;;;;5046826;28;20239;-24
2023/07/19 07:16:12;;;;;;;4.47;1.80;;;21.40;98.60;;;;;;5039447;28;20209;-24
2023/07/19 07:18:39;;;;;;;4.40;1.70;;;21.50;98.60;;;;;;5028663;28;20220;-25
2023/07/19 07:21:09;;;;;;;4.65;1.70;;;21.50;98.50;;;;;;5038952;28;20215;-25
2023/07/19 07:23:38;;;;;;;4.70;1.45;;;21.50;98.50;;;;;;5036633;28;20308;-25
2023/07/19 07:26:06;;;;;;;5.57;2.35;;;21.50;98.40;;;;;;5029738;28;20705;-25
2023/07/19 07:28:37;;;;;;;3.20;1.50;;;21.50;98.30;;;;;;5046705;28;20212;-24
2023/07/19 07:31:09;;;;;;;4.07;1.42;;;21.60;98.30;;;;;;5029678;28;20607;-25
2023/07/19 07:33:40;;;;;;;2.90;1.58;;;21.60;98.30;;;;;;5029418;28;20232;-34
2023/07/19 07:36:07;;;;;;;3.80;1.50;;;21.60;98.30;;;;;;5027874;28;20212;-34
2023/07/19 07:38:36;;;;;;;3.90;1.77;;;21.70;98.30;;;;;;5031138;28;20339;-34
2023/07/19 07:41:06;;;;;;;4.03;1.50;;;21.70;98.20;;;;;;5043550;28;20217;-34
2023/07/19 07:43:37;;;;;;;2.67;1.55;;;21.70;98.20;;;;;;5036925;28;20291;-34
2023/07/19 07:46:05;;;;;;;3.67;1.95;;;21.80;98.20;;;;;;5027589;28;20685;-34
2023/07/19 07:48:34;;;;;;;4.07;1.70;;;21.80;98.20;;;;;;5037566;28;20304;-34
2023/07/19 07:51:09;;;;;;;5.43;2.03;;;21.90;98.30;;;;;;5026366;28;20221;-34
2023/07/19 07:53:36;;;;;;;4.78;2.08;;;21.90;98.20;;;;;;5037592;28;20210;-34
2023/07/19 07:56:06;;;;;;;5.38;1.60;;;22.00;98.20;;;;;;5030291;28;20647;-34
2023/07/19 07:58:36;;;;;;;2.20;1.42;;;22.00;98.10;;;;;;5037312;28;20627;-24
2023/07/19 08:01:04;;;;;;;2.67;1.27;;;22.00;98.00;;;;;;5043752;28;20635;-24
2023/07/19 08:03:33;;;;;;;3.83;1.40;;;22.00;97.90;;;;;;5042107;28;20678;-24
2023/07/19 08:06:04;;;;;;;2.95;1.40;;;22.00;97.80;;;;;;5035318;28;20208;-24
2023/07/19 08:08:33;;;;;;;4.57;1.55;;;22.00;97.70;;;;;;5030982;28;20255;-24
2023/07/19 08:11:05;;;;;;;3.47;1.42;;;22.00;97.40;;;;;;5041197;28;20611;-24
2023/07/19 08:13:36;;;;;;;3.08;1.33;;;21.90;97.50;;;;;;5046411;28;20208;-24
2023/07/19 08:16:07;;;;;;;3.97;1.80;;;21.90;97.50;;;;;;5041764;28;20217;-25
2023/07/19 08:18:35;;;;;;;2.20;1.60;;;21.90;97.50;;;;;;5046761;28;20201;-25
2023/07/19 08:21:02;;;;;;;5.00;1.70;;;21.90;97.50;;;;;;5022397;28;20204;-25
2023/07/19 08:23:31;;;;;;;2.80;1.27;;;22.00;97.50;;;;;;5037718;28;20197;-25
2023/07/19 08:25:59;;;;;;;4.18;1.70;;;22.00;97.50;;;;;;5028030;28;20332;-25
2023/07/19 08:28:26;;;;;;;3.65;1.35;;;22.00;97.50;;;;;;5029846;28;20205;-26
2023/07/19 08:30:56;;;;;;;3.63;1.45;;;22.00;97.40;;;;;;5035513;28;20201;-26
2023/07/19 08:33:24;;;;;;;2.78;1.30;;;22.00;97.40;;;;;;5034642;28;20308;-25
2023/07/19 08:35:51;;;;;;;2.85;1.42;;;22.00;97.40;;;;;;5027298;28;20239;-25
2023/07/19 08:38:19;;;;;;;3.00;1.60;;;22.00;97.30;;;;;;5037646;28;20232;-25
2023/07/19 08:41:07;;;;;;;5.60;1.60;;;22.10;97.30;;;;;;5028398;28;20561;-25
2023/07/19 08:43:37;;;;;;;4.88;2.00;;;22.10;97.30;;;;;;5030364;28;20197;-25
2023/07/19 08:46:13;;;;;;;2.95;1.48;;;22.10;97.30;;;;;;5024885;28;20579;-25
2023/07/19 08:48:44;;;;;;;3.67;1.48;;;22.20;97.40;;;;;;5039377;28;20694;-25
2023/07/19 08:51:15;;;;;;;3.67;1.23;;;22.20;97.40;;;;;;5046932;28;20200;-25
2023/07/19 08:53:45;;;;;;;2.53;1.50;;;22.20;97.30;;;;;;5038341;28;20635;-25
2023/07/19 08:56:14;;;;;;;4.43;1.50;;;22.20;97.30;;;;;;5047555;28;20196;-25
2023/07/19 08:58:43;;;;;;;4.97;1.58;;;22.20;97.30;;;;;;5035997;28;20204;-25
2023/07/19 09:01:14;;;;;;;3.88;1.58;;;22.20;97.30;;;;;;5046203;28;20200;-25
2023/07/19 09:03:44;;;;;;;2.83;1.10;;;22.20;97.40;;;;;;5031542;28;20220;-25
2023/07/19 09:06:14;;;;;;;4.82;1.45;;;22.30;97.30;;;;;;5027332;28;20250;-25
2023/07/19 09:08:42;;;;;;;2.75;1.25;;;22.30;97.30;;;;;;5029384;28;21263;-25
2023/07/19 09:11:09;;;;;;;2.70;1.10;;;22.30;97.20;;;;;;5032723;28;20589;-25
2023/07/19 09:13:37;;;;;;;3.65;1.20;;;22.30;97.00;;;;;;5039558;28;20200;-25
2023/07/19 09:16:08;;;;;;;3.45;1.20;;;22.30;97.00;;;;;;5045530;28;20250;-25
2023/07/19 09:18:36;;;;;;;4.15;1.40;;;22.30;96.90;;;;;;5030790;28;20212;-25
2023/07/19 09:21:07;;;;;;;3.70;1.20;;;22.30;96.90;;;;;;5045434;28;20224;-35
2023/07/19 09:23:36;;;;;;;4.00;1.25;;;22.30;96.80;;;;;;5042179;28;20207;-34
2023/07/19 09:26:08;;;;;;;2.97;1.33;;;22.30;96.90;;;;;;5027001;28;20201;-34
2023/07/19 09:28:41;;;;;;;3.50;1.50;;;22.30;96.80;;;;;;5039680;28;20212;-25
2023/07/19 09:31:11;;;;;;;2.88;1.20;;;22.30;96.80;;;;;;5028691;28;20212;-25
2023/07/19 09:33:57;;;;;;;1.92;1.20;;;22.30;96.80;;;;;;5029784;28;20345;-25
2023/07/19 09:36:29;;;;;;;3.17;1.20;;;22.30;96.80;;;;;;5024711;28;20213;-25
2023/07/19 09:39:00;;;;;;;2.35;1.00;;;22.30;96.70;;;;;;5029623;28;20243;-25
2023/07/19 09:41:34;;;;;;;4.28;1.33;;;22.30;96.80;;;;;;5042134;28;20232;-25
2023/07/19 09:44:09;;;;;;;2.70;1.10;;;22.40;96.80;;;;;;5046570;28;20564;-25
2023/07/19 09:46:37;;;;;;;3.70;1.20;;;22.40;96.40;;;;;;5034492;28;20228;-25
2023/07/19 09:49:07;;;;;;;1.83;0.93;;;22.40;96.70;;;;;;5031811;28;20209;-25
2023/07/19 09:51:42;;;;;;;2.22;1.10;;;22.40;96.60;;;;;;5026776;28;20212;-25
2023/07/19 09:54:14;;;;;;;2.65;1.10;;;22.50;96.60;;;;;;5042632;28;20216;-25
2023/07/19 09:56:45;;;;;;;2.65;1.15;;;22.50;96.50;;;;;;5038103;28;20204;-25
2023/07/19 09:59:27;;;;;;;3.88;1.40;;;22.60;96.70;;;;;;5023867;28;20229;-25
2023/07/19 10:01:57;;;;;;;3.90;1.20;;;22.70;96.50;;;;;;5030680;28;20205;-25
2023/07/19 10:04:26;;;;;;;3.45;1.40;;;22.70;96.70;;;;;;5025265;28;20259;-25
2023/07/19 10:07:18;;;;;;;1.70;1.27;;;22.80;96.90;;;;;;5024819;28;20272;-25
2023/07/19 10:09:59;;;;;;;3.15;1.23;;;22.80;96.80;;;;;;5025522;28;20198;-25
2023/07/19 10:12:31;;;;;;;4.70;1.27;;;22.90;96.90;;;;;;5044424;28;20732;-25
2023/07/19 10:15:07;;;;;;;2.85;1.10;;;23.00;96.90;;;;;;5046329;28;20200;-24
2023/07/19 10:18:12;;;;;;;3.25;1.52;;;23.00;96.90;;;;;;5024118;28;20563;-25
2023/07/19 10:20:44;;;;;;;10.15;2.80;;;23.10;97.00;;;;;;5034045;28;20224;-25
2023/07/19 10:23:14;;;;;;;1.63;1.10;;;23.20;97.10;;;;;;5024692;28;20247;-25
2023/07/19 10:25:48;;;;;;;4.18;1.52;;;23.20;97.10;;;;;;5024491;28;20201;-25
2023/07/19 10:28:42;;;;;;;2.25;0.80;;;23.30;97.20;;;;;;5026590;28;20676;-25
2023/07/19 10:31:14;;;;;;;1.77;0.80;;;23.30;97.20;;;;;;5023144;28;20320;-25
2023/07/19 10:33:57;;;;;;;1.50;0.73;;;23.40;97.30;;;;;;5025644;28;20561;-25
2023/07/19 10:36:29;;;;;;;3.17;1.35;;;23.50;97.30;;;;;;5029095;28;20665;-25
2023/07/19 10:39:01;;;;;;;2.58;0.90;;;23.50;97.20;;;;;;5050900;28;20579;-25
2023/07/19 10:41:28;;;;;;;2.88;0.82;;;23.50;97.40;;;;;;5031134;28;20223;-25
2023/07/19 10:44:00;;;;;;;1.58;0.73;;;23.60;97.40;;;;;;5026684;28;20219;-25
2023/07/19 10:46:35;;;;;;;3.85;0.90;;;23.60;97.40;;;;;;5023691;28;20212;-25
2023/07/19 10:49:07;;;;;;;2.13;0.77;;;23.60;97.40;;;;;;5025199;28;20275;-25
2023/07/19 10:51:37;;;;;;;1.80;0.80;;;23.70;97.50;;;;;;5035100;28;20205;-25
2023/07/19 10:54:06;;;;;;;3.10;1.13;;;23.70;97.50;;;;;;5035274;28;20588;-25
2023/07/19 10:56:33;;;;;;;2.63;0.63;;;23.70;97.50;;;;;;5031540;28;20220;-26
2023/07/19 10:59:01;;;;;;;2.97;0.90;;;23.80;97.60;;;;;;5036440;28;20698;-25
2023/07/19 11:01:31;;;;;;;2.45;0.60;;;23.90;97.70;;;;;;5032278;28;20232;-25
2023/07/19 11:04:08;;;;;;;2.10;0.90;;;23.90;97.70;;;;;;5025830;28;20687;-25
2023/07/19 11:06:38;;;;;;;1.58;0.50;;;24.00;97.80;;;;;;5035130;28;20216;-25
2023/07/19 11:09:06;;;;;;;2.33;0.57;;;24.10;97.80;;;;;;5024074;28;20324;-34
2023/07/19 11:11:41;;;;;;;2.03;0.80;;;24.10;97.80;;;;;;5036215;28;20693;-34
2023/07/19 11:14:33;;;;;;;3.85;0.88;;;24.20;97.80;;;;;;5039188;28;20652;-35
2023/07/19 11:17:00;;;;;;;1.48;0.90;;;24.30;97.80;;;;;;5036778;28;20209;-35
2023/07/19 11:19:37;;;;;;;2.85;0.82;;;24.20;97.80;;;;;;5026098;28;20282;-34
2023/07/19 11:22:06;;;;;;;1.75;1.20;;;24.20;98.10;;;;;;5031222;28;20591;-35
2023/07/19 11:24:38;;;;;;;1.20;0.80;;;24.20;97.80;;;;;;5044008;28;20204;-35
2023/07/19 11:27:08;;;;;;;2.15;1.17;;;24.20;98.10;;;;;;5034425;28;20307;-34
2023/07/19 11:29:38;;;;;;;1.67;1.02;;;24.20;97.90;;;;;;5037006;28;20231;-34
2023/07/19 11:32:16;;;;;;;1.42;1.00;;;24.20;97.90;;;;;;5036279;28;20213;-34
2023/07/19 11:34:52;;;;;;;1.77;0.73;;;24.10;97.80;;;;;;5037929;28;20193;-34
2023/07/19 11:37:31;;;;;;;3.63;0.80;;;24.10;98.10;;;;;;5039938;28;20211;-35
2023/07/19 11:40:06;;;;;;;1.52;0.70;;;24.00;97.80;;;;;;5033561;28;20324;-34
2023/07/19 11:42:52;;;;;;;2.88;0.90;;;24.00;97.90;;;;;;5038686;28;20573;-34
2023/07/19 11:45:31;;;;;;;1.75;1.00;;;24.00;98.00;;;;;;5036882;28;20203;-34
2023/07/19 11:48:02;;;;;;;1.98;1.02;;;24.00;98.00;;;;;;5044207;28;20228;-34
2023/07/19 11:50:30;;;;;;;1.30;1.05;;;24.00;98.10;;;;;;5047359;28;20224;-34
2023/07/19 11:53:01;;;;;;;1.27;1.00;;;24.10;98.20;;;;;;5035559;28;20216;-34
2023/07/19 11:55:30;;;;;;;1.77;0.77;;;24.10;98.30;;;;;;5035432;28;20204;-34
2023/07/19 11:58:03;;;;;;;2.05;0.88;;;24.20;98.30;;;;;;5038402;28;20725;-26
2023/07/19 12:00:33;;;;;;;2.20;1.00;;;24.30;98.30;;;;;;5027807;28;20221;-25
2023/07/19 12:03:01;;;;;;;0.63;0.60;;;24.20;98.20;;;;;;5032726;28;20220;-25
2023/07/19 12:05:30;;;;;;;1.55;0.90;;;24.30;98.20;;;;;;5030531;28;20295;-25
2023/07/19 12:07:57;;;;;;;3.80;1.00;;;24.30;98.10;;;;;;5031664;28;20224;-26
2023/07/19 12:10:26;;;;;;;3.13;1.08;;;24.40;98.10;;;;;;5030340;28;20208;-34
2023/07/19 12:12:58;;;;;;;2.10;0.80;;;24.40;98.10;;;;;;5034626;28;20290;-34
2023/07/19 12:15:25;;;;;;;3.08;1.20;;;24.40;98.00;;;;;;5028195;28;20514;-24
2023/07/19 12:17:55;;;;;;;1.77;1.10;;;24.40;97.90;;;;;;5034710;28;20239;-25
2023/07/19 12:20:24;;;;;;;2.17;1.30;;;24.40;97.80;;;;;;5045787;28;20228;-25
2023/07/19 12:22:54;;;;;;;1.55;1.00;;;24.40;97.70;;;;;;5034101;28;20205;-25
2023/07/19 12:25:27;;;;;;;2.28;1.40;;;24.40;97.70;;;;;;5029610;28;20266;-33
2023/07/19 12:27:56;;;;;;;2.40;1.55;;;24.50;97.80;;;;;;5028425;28;20212;-33
2023/07/19 12:30:24;;;;;;;3.10;1.40;;;24.50;97.90;;;;;;5035306;28;20584;-33
2023/07/19 12:32:53;;;;;;;2.63;1.23;;;24.50;97.60;;;;;;5034326;28;20197;-33
2023/07/19 12:35:20;;;;;;;2.03;1.17;;;24.50;97.80;;;;;;5038752;28;20221;-33
2023/07/19 12:37:48;;;;;;;1.42;1.27;;;24.50;97.70;;;;;;5027637;28;20244;-33
2023/07/19 12:40:20;;;;;;;2.60;1.50;;;24.60;97.80;;;;;;5027412;28;20235;-33
2023/07/19 12:42:48;;;;;;;2.35;1.45;;;24.70;97.70;;;;;;5039811;28;20201;-33
2023/07/19 12:45:17;;;;;;;2.58;1.25;;;24.70;97.50;;;;;;5042117;28;20216;-33
2023/07/19 12:47:45;;;;;;;1.35;1.23;;;24.70;97.30;;;;;;5029566;28;20701;-33
2023/07/19 12:50:12;;;;;;;2.33;1.35;;;24.80;97.40;;;;;;5038558;28;20591;-33
2023/07/19 12:52:39;;;;;;;2.25;1.35;;;24.80;97.40;;;;;;5028418;28;20225;-33
2023/07/19 12:55:20;;;;;;;3.08;1.85;;;24.80;97.00;;;;;;5042969;28;20779;-33
2023/07/19 12:57:48;;;;;;;2.00;1.42;;;24.80;97.10;;;;;;5035178;28;20201;-33
2023/07/19 13:00:16;;;;;;;2.85;1.20;;;24.80;97.00;;;;;;5029826;28;20217;-33
2023/07/19 13:02:46;;;;;;;3.30;1.42;;;24.80;96.70;;;;;;5043394;28;20642;-33
2023/07/19 13:05:16;;;;;;;2.55;1.60;;;24.70;96.90;;;;;;5033686;28;20534;-33